createdAt,value
2019-02-26T00:00:36.866Z,61.70
2019-02-26T00:03:05.173Z,64.30
2019-02-26T00:05:33.452Z,61.88
2019-02-26T00:08:02.622Z,69.03
2019-02-26T00:10:31.540Z,57.30
2019-02-26T00:13:00.999Z,62.30
2019-02-26T00:15:31.326Z,64.40
2019-02-26T00:17:59.297Z,72.30
2019-02-26T00:20:29.625Z,66.10
2019-02-26T00:22:59.655Z,66.20
2019-02-26T00:25:27.663Z,61.40
2019-02-26T00:27:56.888Z,67.90
2019-02-26T00:30:25.979Z,58.97
2019-02-26T00:32:55.429Z,56.67
2019-02-26T00:35:25.325Z,66.90
2019-02-26T00:37:55.788Z,67.20
2019-02-26T00:40:24.125Z,69.35
2019-02-26T00:42:54.614Z,61.70
2019-02-26T00:45:24.806Z,67.53
2019-02-26T00:47:52.421Z,65.67
2019-02-26T00:50:20.714Z,65.03
2019-02-26T00:52:48.990Z,66.93
2019-02-26T00:55:17.281Z,65.10
2019-02-26T00:57:45.565Z,75.47
2019-02-26T01:00:17.224Z,68.93
2019-02-26T01:02:45.798Z,73.57
2019-02-26T01:05:15.846Z,71.47
2019-02-26T01:07:46.690Z,65.63
2019-02-26T01:10:16.386Z,77.12
2019-02-26T01:12:44.479Z,67.77
2019-02-26T01:15:17.595Z,68.12
2019-02-26T01:17:45.950Z,65.90
2019-02-26T01:20:15.803Z,67.25
2019-02-26T01:22:45.371Z,74.93
2019-02-26T01:25:15.937Z,77.77
2019-02-26T01:27:47.604Z,70.47
2019-02-26T01:30:18.151Z,68.90
2019-02-26T01:32:45.374Z,59.60
2019-02-26T01:35:13.736Z,60.17
2019-02-26T01:37:42.030Z,62.50
2019-02-26T01:40:13.802Z,65.40
2019-02-26T01:42:47.058Z,78.30
2019-02-26T01:45:13.677Z,77.47
2019-02-26T01:47:42.854Z,77.57
2019-02-26T01:50:13.418Z,74.57
2019-02-26T01:52:42.824Z,71.77
2019-02-26T01:55:11.736Z,76.30
2019-02-26T01:57:42.548Z,65.80
2019-02-26T02:00:13.206Z,70.60
2019-02-26T02:02:41.523Z,75.03
2019-02-26T02:05:09.985Z,74.60
2019-02-26T02:07:38.323Z,72.47
2019-02-26T02:10:15.405Z,73.25
2019-02-26T02:12:43.678Z,64.47
2019-02-26T02:15:17.925Z,65.97
2019-02-26T02:18:09.275Z,60.78
2019-02-26T02:20:37.564Z,67.10
2019-02-26T02:23:07.095Z,77.77
2019-02-26T02:25:36.195Z,84.17
2019-02-26T02:28:05.446Z,69.93
2019-02-26T02:30:35.613Z,71.37
2019-02-26T02:33:03.818Z,76.50
2019-02-26T02:35:32.089Z,72.60
2019-02-26T02:38:02.802Z,71.97
2019-02-26T02:40:30.359Z,75.40
2019-02-26T02:43:03.964Z,77.13
2019-02-26T02:45:28.640Z,78.93
2019-02-26T02:48:00.360Z,75.22
2019-02-26T02:50:26.911Z,83.37
2019-02-26T02:52:56.901Z,76.13
2019-02-26T02:55:25.189Z,78.78
2019-02-26T02:57:55.153Z,73.30
2019-02-26T03:00:25.996Z,71.00
2019-02-26T03:02:55.655Z,84.93
2019-02-26T03:05:23.486Z,72.73
2019-02-26T03:07:54.029Z,74.67
2019-02-26T03:10:26.094Z,75.75
2019-02-26T03:23:04.091Z,73.02
2019-02-26T03:25:32.118Z,85.20
2019-02-26T03:28:00.425Z,72.08
2019-02-26T03:30:33.887Z,80.07
2019-02-26T03:33:04.103Z,77.50
2019-02-26T03:35:28.753Z,86.50
2019-02-26T03:37:58.048Z,78.50
2019-02-26T03:40:29.852Z,73.73
2019-02-26T03:42:57.079Z,80.85
2019-02-26T03:45:25.361Z,72.33
2019-02-26T03:47:55.348Z,79.63
2019-02-26T03:50:26.312Z,79.77
2019-02-26T03:52:53.712Z,78.35
2019-02-26T03:55:22.010Z,75.37
2019-02-26T03:57:53.329Z,77.50
2019-02-26T04:00:20.643Z,82.63
2019-02-26T04:02:51.641Z,78.70
2019-02-26T04:05:18.994Z,84.40
2019-02-26T04:07:49.876Z,88.58
2019-02-26T04:10:17.291Z,79.20
2019-02-26T04:12:48.700Z,83.07
2019-02-26T04:15:17.634Z,81.40
2019-02-26T04:17:45.936Z,83.60
2019-02-26T04:20:15.035Z,81.80
2019-02-26T04:22:48.887Z,75.07
2019-02-26T04:25:22.099Z,75.45
2019-02-26T04:28:07.982Z,77.22
2019-02-26T04:30:56.389Z,89.47
2019-02-26T04:33:50.453Z,79.70
2019-02-26T04:36:27.696Z,76.60
2019-02-26T04:39:28.918Z,91.00
2019-02-26T04:42:19.756Z,89.13
2019-02-26T04:45:09.074Z,86.27
2019-02-26T04:47:48.731Z,80.97
2019-02-26T04:50:16.315Z,76.03
2019-02-26T04:52:44.620Z,112.05
2019-02-26T04:55:12.901Z,89.43
2019-02-26T04:57:43.330Z,87.27
2019-02-26T05:00:11.362Z,83.87
2019-02-26T05:02:39.642Z,92.40
2019-02-26T05:05:08.413Z,87.00
2019-02-26T05:07:38.585Z,87.67
2019-02-26T05:10:07.620Z,87.27
2019-02-26T05:12:37.897Z,75.23
2019-02-26T05:15:11.518Z,82.43
2019-02-26T05:17:39.802Z,96.43
2019-02-26T05:20:10.639Z,87.13
2019-02-26T05:22:38.097Z,96.15
2019-02-26T05:25:11.028Z,94.80
2019-02-26T05:27:39.709Z,91.10
2019-02-26T05:30:09.872Z,91.20
2019-02-26T05:32:39.076Z,88.80
2019-02-26T05:35:07.351Z,91.60
2019-02-26T05:37:40.206Z,86.80
2019-02-26T05:40:09.534Z,85.83
2019-02-26T05:42:36.759Z,86.17
2019-02-26T05:45:09.173Z,75.90
2019-02-26T05:47:36.083Z,73.72
2019-02-26T05:50:13.030Z,82.95
2019-02-26T05:52:37.136Z,87.70
2019-02-26T05:55:05.378Z,84.77
2019-02-26T05:57:33.674Z,90.53
2019-02-26T06:00:01.951Z,88.10
2019-02-26T06:02:30.218Z,97.25
2019-02-26T06:04:58.513Z,110.97
2019-02-26T06:07:28.109Z,99.47
2019-02-26T06:09:59.094Z,103.80
2019-02-26T06:12:26.790Z,95.90
2019-02-26T06:14:57.668Z,99.23
2019-02-26T06:17:25.077Z,93.27
2019-02-26T06:19:54.697Z,94.70
2019-02-26T06:22:24.352Z,96.50
2019-02-26T06:24:57.238Z,88.80
2019-02-26T06:27:25.124Z,84.50
2019-02-26T06:29:57.309Z,91.83
2019-02-26T06:32:27.419Z,97.50
2019-02-26T06:34:52.976Z,87.67
2019-02-26T06:37:23.594Z,87.65
2019-02-26T06:39:54.873Z,83.27
2019-02-26T06:42:21.993Z,92.67
2019-02-26T06:44:51.414Z,97.97
2019-02-26T06:47:21.128Z,85.28
2019-02-26T06:49:50.314Z,83.00
2019-02-26T06:52:19.730Z,88.87
2019-02-26T06:54:54.188Z,88.40
2019-02-26T06:57:18.032Z,78.87
2019-02-26T06:59:46.314Z,86.87
2019-02-26T07:02:14.608Z,85.42
2019-02-26T07:04:42.912Z,102.53
2019-02-26T07:07:14.172Z,107.87
2019-02-26T07:09:41.956Z,98.67
2019-02-26T07:12:11.189Z,90.63
2019-02-26T07:14:39.477Z,85.73
2019-02-26T07:17:07.776Z,93.17
2019-02-26T07:19:38.017Z,92.12
2019-02-26T07:22:08.293Z,93.62
2019-02-26T07:24:38.355Z,94.80
2019-02-26T07:27:08.910Z,96.70
2019-02-26T07:29:40.014Z,94.47
2019-02-26T07:32:06.949Z,76.57
2019-02-26T07:34:35.236Z,86.07
2019-02-26T07:37:04.260Z,89.92
2019-02-26T07:39:33.513Z,83.67
2019-02-26T07:42:01.808Z,85.38
2019-02-26T07:44:30.092Z,77.40
2019-02-26T07:47:00.646Z,75.87
2019-02-26T07:49:28.387Z,82.83
2019-02-26T07:51:58.276Z,78.77
2019-02-26T07:54:28.669Z,82.00
2019-02-26T07:56:57.623Z,78.53
2019-02-26T07:59:27.819Z,73.75
2019-02-26T08:01:56.240Z,69.83
2019-02-26T08:04:24.519Z,65.13
2019-02-26T08:06:56.265Z,78.23
2019-02-26T08:09:23.658Z,69.33
2019-02-26T08:11:51.948Z,68.40
2019-02-26T08:14:20.972Z,63.47
2019-02-26T08:16:53.618Z,66.67
2019-02-26T08:19:20.225Z,65.10
2019-02-26T08:21:50.252Z,63.80
2019-02-26T08:24:20.347Z,69.77
2019-02-26T08:26:49.771Z,59.83
2019-02-26T08:29:18.140Z,59.97
2019-02-26T08:31:47.443Z,67.83
2019-02-26T08:34:16.396Z,63.70
2019-02-26T08:36:46.827Z,64.33
2019-02-26T08:39:15.688Z,59.70
2019-02-26T08:41:56.043Z,68.05
2019-02-26T08:44:24.311Z,61.90
2019-02-26T08:46:52.600Z,59.10
2019-02-26T08:49:22.537Z,60.40
2019-02-26T08:51:50.844Z,59.00
2019-02-26T08:54:21.276Z,63.50
2019-02-26T08:56:49.117Z,56.47
2019-02-26T08:59:19.595Z,60.47
2019-02-26T09:01:47.413Z,55.20
2019-02-26T09:04:17.463Z,56.37
2019-02-26T09:06:45.679Z,53.07
2019-02-26T09:09:13.947Z,51.77
2019-02-26T09:11:42.217Z,53.60
2019-02-26T09:14:12.126Z,53.23
2019-02-26T09:16:40.471Z,47.77
2019-02-26T09:19:08.744Z,47.48
2019-02-26T09:21:39.524Z,47.43
2019-02-26T09:24:07.707Z,52.23
2019-02-26T09:26:36.120Z,52.83
2019-02-26T09:29:04.395Z,48.70
2019-02-26T09:31:32.674Z,52.67
2019-02-26T09:34:00.951Z,52.25
2019-02-26T09:36:29.527Z,47.43
2019-02-26T09:38:57.785Z,50.08
2019-02-26T09:41:26.063Z,53.03
2019-02-26T09:43:54.340Z,54.90
2019-02-26T09:46:22.618Z,49.97
2019-02-26T09:48:50.896Z,50.00
2019-02-26T09:51:19.171Z,47.13
2019-02-26T09:53:49.365Z,50.00
2019-02-26T09:56:17.459Z,51.02
2019-02-26T09:58:48.219Z,54.10
2019-02-26T10:01:17.950Z,46.98
2019-02-26T10:03:45.812Z,46.95
2019-02-26T10:06:15.903Z,48.93
2019-02-26T10:08:46.010Z,46.48
2019-02-26T10:11:16.014Z,44.25
2019-02-26T10:13:44.897Z,41.98
2019-02-26T10:16:14.076Z,45.15
2019-02-26T10:18:42.348Z,42.20
2019-02-26T10:21:12.053Z,44.13
2019-02-26T10:23:40.601Z,44.83
2019-02-26T10:26:10.723Z,42.03
2019-02-26T10:28:40.327Z,43.83
2019-02-26T10:31:09.724Z,40.80
2019-02-26T10:33:41.118Z,46.18
2019-02-26T10:36:11.186Z,44.30
2019-02-26T10:38:38.949Z,41.77
2019-02-26T10:41:07.239Z,43.10
2019-02-26T10:43:35.516Z,33.10
2019-02-26T10:46:03.798Z,42.93
2019-02-26T10:48:32.072Z,40.13
2019-02-26T10:51:00.597Z,40.27
2019-02-26T10:53:28.895Z,39.40
2019-02-26T10:55:57.181Z,39.80
2019-02-26T10:58:25.462Z,43.77
2019-02-26T11:00:55.598Z,40.80
2019-02-26T11:03:23.915Z,46.27
2019-02-26T11:05:52.483Z,35.37
2019-02-26T11:08:23.422Z,41.70
2019-02-26T11:10:52.384Z,44.40
2019-02-26T11:13:23.038Z,46.23
2019-02-26T11:15:53.441Z,42.87
2019-02-26T11:18:23.241Z,37.40
2019-02-26T11:20:52.868Z,39.10
2019-02-26T11:23:30.368Z,38.30
2019-02-26T11:25:50.784Z,41.03
2019-02-26T11:28:19.077Z,43.10
2019-02-26T11:30:49.068Z,41.73
2019-02-26T11:33:17.440Z,42.40
2019-02-26T11:35:47.064Z,43.77
2019-02-26T11:38:17.021Z,41.20
2019-02-26T11:40:45.720Z,39.27
2019-02-26T11:43:15.031Z,42.95
2019-02-26T11:45:44.520Z,44.37
2019-02-26T11:48:12.867Z,38.48
2019-02-26T11:50:44.239Z,38.08
2019-02-26T11:53:11.151Z,40.48
2019-02-26T11:55:39.423Z,39.50
2019-02-26T11:58:10.145Z,38.27
2019-02-26T12:00:42.224Z,35.50
2019-02-26T12:03:09.401Z,41.97
2019-02-26T12:05:41.221Z,40.07
2019-02-26T12:08:07.689Z,38.97
2019-02-26T12:10:37.782Z,39.23
2019-02-26T12:13:05.971Z,41.53
2019-02-26T12:15:36.261Z,38.47
2019-02-26T12:18:04.336Z,37.17
2019-02-26T12:20:32.679Z,33.88
2019-02-26T12:23:00.955Z,39.07
2019-02-26T12:25:29.230Z,37.60
2019-02-26T12:27:57.517Z,33.17
2019-02-26T12:30:27.033Z,31.27
2019-02-26T12:32:55.336Z,36.17
2019-02-26T12:35:23.601Z,34.63
2019-02-26T12:37:53.902Z,32.73
2019-02-26T12:40:25.130Z,33.73
2019-02-26T12:42:51.901Z,36.90
2019-02-26T12:45:26.102Z,32.97
2019-02-26T12:47:55.253Z,36.37
2019-02-26T12:50:28.974Z,31.50
2019-02-26T12:52:56.782Z,30.73
2019-02-26T12:55:29.555Z,28.80
2019-02-26T12:57:56.495Z,28.95
2019-02-26T13:00:24.911Z,29.43
2019-02-26T13:02:53.185Z,30.90
2019-02-26T13:05:23.050Z,29.60
2019-02-26T13:07:51.517Z,32.05
2019-02-26T13:10:22.978Z,29.65
2019-02-26T13:12:58.605Z,31.15
2019-02-26T13:15:21.887Z,30.60
2019-02-26T13:17:54.313Z,29.10
2019-02-26T13:20:27.618Z,29.20
2019-02-26T13:23:00.543Z,33.58
2019-02-26T13:25:26.901Z,30.45
2019-02-26T13:27:55.335Z,31.93
2019-02-26T13:30:27.504Z,35.87
2019-02-26T13:32:59.921Z,35.03
2019-02-26T13:35:25.800Z,33.70
2019-02-26T13:37:56.385Z,35.80
2019-02-26T13:40:25.118Z,32.88
2019-02-26T13:45:26.045Z,33.57
2019-02-26T13:48:00.867Z,30.40
2019-02-26T13:50:31.721Z,34.80
2019-02-26T13:53:00.063Z,30.37
2019-02-26T13:55:28.348Z,30.17
2019-02-26T13:57:56.619Z,28.45
2019-02-26T14:00:26.652Z,28.70
2019-02-26T14:02:54.936Z,35.83
2019-02-26T14:05:23.230Z,31.70
2019-02-26T14:07:51.644Z,28.30
2019-02-26T14:10:21.364Z,27.73
2019-02-26T14:12:49.722Z,24.00
2019-02-26T14:15:30.445Z,28.87
2019-02-26T14:17:58.784Z,29.40
2019-02-26T14:20:27.084Z,31.90
2019-02-26T14:22:55.363Z,26.10
2019-02-26T14:25:23.646Z,30.57
2019-02-26T14:27:52.003Z,29.02
2019-02-26T14:30:22.489Z,28.80
2019-02-26T14:32:50.784Z,30.10
2019-02-26T14:35:19.130Z,30.70
2019-02-26T14:37:47.484Z,29.00
2019-02-26T14:40:18.930Z,31.43
2019-02-26T14:42:47.216Z,36.00
2019-02-26T14:45:16.723Z,30.23
2019-02-26T14:47:45.004Z,30.83
2019-02-26T14:50:17.381Z,29.18
2019-02-26T14:52:46.247Z,35.57
2019-02-26T14:55:15.449Z,26.52
2019-02-26T14:57:43.765Z,28.45
2019-02-26T15:00:15.052Z,28.30
2019-02-26T15:02:46.230Z,31.00
2019-02-26T15:05:14.508Z,29.50
2019-02-26T15:07:42.796Z,31.87
2019-02-26T15:10:12.013Z,33.20
2019-02-26T15:12:40.295Z,33.10
2019-02-26T15:15:17.642Z,30.60
2019-02-26T15:17:45.987Z,29.43
2019-02-26T15:20:25.119Z,30.07
2019-02-26T15:22:53.553Z,34.23
2019-02-26T15:25:31.760Z,31.47
2019-02-26T15:28:05.075Z,34.40
2019-02-26T15:30:30.667Z,34.38
2019-02-26T15:32:58.955Z,27.77
2019-02-26T15:35:27.415Z,30.88
2019-02-26T15:37:55.684Z,28.85
2019-02-26T15:40:23.956Z,33.70
2019-02-26T15:42:54.411Z,33.28
2019-02-26T15:45:24.156Z,31.40
2019-02-26T15:47:52.539Z,30.80
2019-02-26T15:50:21.368Z,37.20
2019-02-26T15:52:52.616Z,31.00
2019-02-26T15:55:25.963Z,32.13
2019-02-26T15:57:55.336Z,36.90
2019-02-26T16:00:24.615Z,38.13
2019-02-26T16:02:53.644Z,36.43
2019-02-26T16:05:24.176Z,38.17
2019-02-26T16:07:52.611Z,36.53
2019-02-26T16:10:22.256Z,39.63
2019-02-26T16:12:51.157Z,38.63
2019-02-26T16:15:19.438Z,35.83
2019-02-26T16:17:47.716Z,36.00
2019-02-26T16:20:21.195Z,40.43
2019-02-26T16:22:49.471Z,37.67
2019-02-26T16:25:17.761Z,34.10
2019-02-26T16:27:46.037Z,43.93
2019-02-26T16:30:28.347Z,37.70
2019-02-26T16:32:56.624Z,41.60
2019-02-26T16:35:25.736Z,36.50
2019-02-26T16:37:54.056Z,37.30
2019-02-26T16:40:22.417Z,36.70
2019-02-26T16:42:50.714Z,40.93
2019-02-26T16:45:22.357Z,38.50
2019-02-26T16:47:50.656Z,35.48
2019-02-26T16:50:23.231Z,38.10
2019-02-26T16:52:51.516Z,38.28
2019-02-26T16:55:20.233Z,37.20
2019-02-26T16:57:48.692Z,40.85
2019-02-26T17:00:30.004Z,41.05
2019-02-26T17:03:00.974Z,38.80
2019-02-26T17:05:28.479Z,40.83
2019-02-26T17:07:57.047Z,39.27
2019-02-26T17:10:29.055Z,39.63
2019-02-26T17:12:56.292Z,40.37
2019-02-26T17:15:31.191Z,43.43
2019-02-26T17:17:59.535Z,42.37
2019-02-26T17:20:27.856Z,37.70
2019-02-26T17:22:56.088Z,38.87
2019-02-26T17:25:27.545Z,38.93
2019-02-26T17:27:54.396Z,37.80
2019-02-26T17:30:23.925Z,39.30
2019-02-26T17:32:52.651Z,40.97
2019-02-26T17:35:20.924Z,42.00
2019-02-26T17:37:49.197Z,40.20
2019-02-26T17:40:18.726Z,38.42
2019-02-26T17:42:48.815Z,39.57
2019-02-26T17:45:30.666Z,42.13
2019-02-26T17:47:58.960Z,46.50
2019-02-26T17:50:32.599Z,42.43
2019-02-26T17:53:00.890Z,39.58
2019-02-26T17:55:29.173Z,44.07
2019-02-26T17:57:57.494Z,37.87
2019-02-26T18:00:27.627Z,43.77
2019-02-26T18:02:55.883Z,45.88
2019-02-26T18:05:24.161Z,43.68
2019-02-26T18:07:52.460Z,41.73
2019-02-26T18:10:22.277Z,39.33
2019-02-26T18:12:50.551Z,41.10
2019-02-26T18:15:20.757Z,49.47
2019-02-26T18:17:48.907Z,42.90
2019-02-26T18:20:19.708Z,38.80
2019-02-26T18:22:48.160Z,46.67
2019-02-26T18:25:18.385Z,42.73
2019-02-26T18:27:46.832Z,38.25
2019-02-26T18:30:25.709Z,42.90
2019-02-26T18:32:56.426Z,55.77
2019-02-26T18:35:23.996Z,43.60
2019-02-26T18:37:52.280Z,49.57
2019-02-26T18:40:20.572Z,44.10
2019-02-26T18:42:49.086Z,46.15
2019-02-26T18:45:28.856Z,50.57
2019-02-26T18:47:57.460Z,46.03
2019-02-26T18:50:28.604Z,55.33
2019-02-26T18:52:58.063Z,50.03
2019-02-26T18:55:28.406Z,47.20
2019-02-26T18:57:56.377Z,55.23
2019-02-26T19:00:27.456Z,48.80
2019-02-26T19:02:55.730Z,47.87
2019-02-26T19:05:24.011Z,51.93
2019-02-26T19:07:52.280Z,49.17
2019-02-26T19:10:21.089Z,48.93
2019-02-26T19:12:49.406Z,49.00
2019-02-26T19:15:21.979Z,47.95
2019-02-26T19:17:52.098Z,48.90
2019-02-26T19:20:22.805Z,49.08
2019-02-26T19:22:52.040Z,49.30
2019-02-26T19:25:20.452Z,56.08
2019-02-26T19:27:52.844Z,57.33
2019-02-26T19:30:21.152Z,50.20
2019-02-26T19:32:49.458Z,55.30
2019-02-26T19:35:17.744Z,52.83
2019-02-26T19:37:47.872Z,56.90
2019-02-26T19:40:39.006Z,61.40
2019-02-26T19:43:07.139Z,60.75
2019-02-26T19:45:35.437Z,62.87
2019-02-26T19:48:03.700Z,59.23
2019-02-26T19:50:31.972Z,67.10
2019-02-26T19:53:02.503Z,60.47
2019-02-26T19:55:35.844Z,68.90
2019-02-26T19:58:06.697Z,68.03
2019-02-26T20:00:34.208Z,65.80
2019-02-26T20:03:04.891Z,62.70
2019-02-26T20:05:32.464Z,60.38
2019-02-26T20:08:05.007Z,71.00
2019-02-26T20:10:30.764Z,63.92
2019-02-26T20:13:01.336Z,62.30
2019-02-26T20:15:30.491Z,64.90
2019-02-26T20:17:58.824Z,60.50
2019-02-26T20:20:27.113Z,59.18
2019-02-26T20:22:55.411Z,66.10
2019-02-26T20:25:23.683Z,64.40
2019-02-26T20:27:54.620Z,60.90
2019-02-26T20:30:23.125Z,57.90
2019-02-26T20:32:51.485Z,64.85
2019-02-26T20:35:19.768Z,61.10
2019-02-26T20:37:48.051Z,71.90
2019-02-26T20:40:23.708Z,61.77
2019-02-26T20:42:52.076Z,63.03
2019-02-26T20:45:22.620Z,74.05
2019-02-26T20:47:51.067Z,61.33
2019-02-26T20:50:21.072Z,66.37
2019-02-26T20:52:49.397Z,59.27
2019-02-26T20:55:22.725Z,60.27
2019-02-26T20:57:51.015Z,60.48
2019-02-26T21:00:20.039Z,61.23
2019-02-26T21:02:51.564Z,63.85
2019-02-26T21:05:19.906Z,54.53
2019-02-26T21:07:49.676Z,66.10
2019-02-26T21:10:18.878Z,62.73
2019-02-26T21:12:47.240Z,65.30
2019-02-26T21:15:20.159Z,60.40
2019-02-26T21:17:48.455Z,83.83
2019-02-26T21:20:16.755Z,70.93
2019-02-26T21:22:45.050Z,65.63
2019-02-26T21:25:14.067Z,75.23
2019-02-26T21:27:42.370Z,73.63
2019-02-26T21:30:18.491Z,64.42
2019-02-26T21:32:46.783Z,71.62
2019-02-26T21:35:15.135Z,71.90
2019-02-26T21:37:43.410Z,66.97
2019-02-26T21:40:16.170Z,71.27
2019-02-26T21:42:45.109Z,59.10
2019-02-26T21:45:15.974Z,58.80
2019-02-26T21:47:44.607Z,69.43
2019-02-26T21:50:16.921Z,63.70
2019-02-26T21:52:59.013Z,60.23
2019-02-26T21:55:15.940Z,63.80
2019-02-26T21:57:44.236Z,61.30
2019-02-26T22:00:15.955Z,64.03
2019-02-26T22:02:44.529Z,54.83
2019-02-26T22:05:12.800Z,57.03
2019-02-26T22:07:41.095Z,48.00
2019-02-26T22:10:15.484Z,48.00
2019-02-26T22:12:44.436Z,46.50
2019-02-26T22:15:14.367Z,53.33
2019-02-26T22:17:42.649Z,64.63
2019-02-26T22:20:23.469Z,60.23
2019-02-26T22:22:43.416Z,67.70
2019-02-26T22:25:16.057Z,62.37
2019-02-26T22:27:42.580Z,69.80
2019-02-26T22:30:15.797Z,63.13
2019-02-26T22:32:44.087Z,59.80
2019-02-26T22:35:12.373Z,68.23
2019-02-26T22:37:41.378Z,52.93
2019-02-26T22:40:13.870Z,56.77
2019-02-26T22:42:42.174Z,61.07
2019-02-26T22:45:14.854Z,63.53
2019-02-26T22:47:44.232Z,64.87
2019-02-26T22:50:17.369Z,58.77
2019-02-26T22:52:45.653Z,64.20
2019-02-26T22:55:16.601Z,63.73
2019-02-26T22:57:45.160Z,58.30
2019-02-26T23:00:23.899Z,66.33
2019-02-26T23:02:52.178Z,61.92
2019-02-26T23:05:20.461Z,59.80
2019-02-26T23:07:48.741Z,66.17
2019-02-26T23:10:17.114Z,69.35
2019-02-26T23:12:45.409Z,66.87
2019-02-26T23:15:13.690Z,62.80
2019-02-26T23:17:42.045Z,58.50
2019-02-26T23:20:11.700Z,62.50
2019-02-26T23:22:40.068Z,64.67
2019-02-26T23:25:09.310Z,66.43
2019-02-26T23:27:37.600Z,65.70
2019-02-26T23:30:09.218Z,58.47
2019-02-26T23:32:38.919Z,51.67
2019-02-26T23:35:10.695Z,69.27
2019-02-26T23:37:38.984Z,62.83
2019-02-26T23:40:10.059Z,68.60
2019-02-26T23:42:38.950Z,63.52
2019-02-26T23:45:12.522Z,69.10
2019-02-26T23:47:40.814Z,61.40
2019-02-26T23:50:10.630Z,64.20
2019-02-26T23:52:38.941Z,71.37
2019-02-26T23:55:13.021Z,65.00
2019-02-26T23:57:39.216Z,63.20
